sensor_id;sensor_type;location;lat;lon;timestamp;P1;durP1;ratioP1;P2;durP2;ratioP2
25915;SDS011;13719;48.188;11.618;2024-01-30T00:02:23;7.78;;;3.85;;
25915;SDS011;13719;48.188;11.618;2024-01-30T00:04:53;6.35;;;4.05;;
25915;SDS011;13719;48.188;11.618;2024-01-30T00:07:21;8.27;;;4.30;;
25915;SDS011;13719;48.188;11.618;2024-01-30T00:09:50;8.02;;;4.80;;
25915;SDS011;13719;48.188;11.618;2024-01-30T00:12:18;5.80;;;3.40;;
25915;SDS011;13719;48.188;11.618;2024-01-30T00:14:47;7.13;;;4.07;;
25915;SDS011;13719;48.188;11.618;2024-01-30T00:17:20;7.93;;;4.30;;
25915;SDS011;13719;48.188;11.618;2024-01-30T00:19:48;5.97;;;3.78;;
25915;SDS011;13719;48.188;11.618;2024-01-30T00:22:18;6.53;;;4.50;;
25915;SDS011;13719;48.188;11.618;2024-01-30T00:24:46;7.95;;;4.10;;
25915;SDS011;13719;48.188;11.618;2024-01-30T00:27:15;6.80;;;4.38;;
25915;SDS011;13719;48.188;11.618;2024-01-30T00:29:43;6.43;;;4.25;;
25915;SDS011;13719;48.188;11.618;2024-01-30T00:32:12;7.50;;;4.57;;
25915;SDS011;13719;48.188;11.618;2024-01-30T00:34:41;6.07;;;3.65;;
25915;SDS011;13719;48.188;11.618;2024-01-30T00:37:09;8.32;;;4.65;;
25915;SDS011;13719;48.188;11.618;2024-01-30T00:39:39;7.95;;;4.35;;
25915;SDS011;13719;48.188;11.618;2024-01-30T00:42:08;7.97;;;4.25;;
25915;SDS011;13719;48.188;11.618;2024-01-30T00:44:36;7.35;;;4.18;;
25915;SDS011;13719;48.188;11.618;2024-01-30T00:47:05;9.85;;;5.05;;
25915;SDS011;13719;48.188;11.618;2024-01-30T00:49:33;6.80;;;4.18;;
25915;SDS011;13719;48.188;11.618;2024-01-30T00:52:02;8.73;;;4.30;;
25915;SDS011;13719;48.188;11.618;2024-01-30T00:54:31;6.05;;;3.97;;
25915;SDS011;13719;48.188;11.618;2024-01-30T00:57:00;7.45;;;4.57;;
25915;SDS011;13719;48.188;11.618;2024-01-30T00:59:29;6.10;;;3.60;;
25915;SDS011;13719;48.188;11.618;2024-01-30T01:01:57;7.63;;;4.15;;
25915;SDS011;13719;48.188;11.618;2024-01-30T01:04:26;6.90;;;4.30;;
25915;SDS011;13719;48.188;11.618;2024-01-30T01:06:54;8.77;;;4.63;;
25915;SDS011;13719;48.188;11.618;2024-01-30T01:09:23;6.05;;;3.88;;
25915;SDS011;13719;48.188;11.618;2024-01-30T01:11:52;5.47;;;4.50;;
25915;SDS011;13719;48.188;11.618;2024-01-30T01:14:21;6.60;;;4.20;;
25915;SDS011;13719;48.188;11.618;2024-01-30T01:16:50;7.63;;;4.50;;
25915;SDS011;13719;48.188;11.618;2024-01-30T01:19:18;5.88;;;3.85;;
25915;SDS011;13719;48.188;11.618;2024-01-30T01:21:47;9.55;;;4.63;;
25915;SDS011;13719;48.188;11.618;2024-01-30T01:24:16;5.40;;;3.78;;
25915;SDS011;13719;48.188;11.618;2024-01-30T01:26:45;5.53;;;3.95;;
25915;SDS011;13719;48.188;11.618;2024-01-30T01:29:13;8.88;;;4.55;;
25915;SDS011;13719;48.188;11.618;2024-01-30T01:31:43;6.32;;;3.80;;
25915;SDS011;13719;48.188;11.618;2024-01-30T01:34:13;6.45;;;4.47;;
25915;SDS011;13719;48.188;11.618;2024-01-30T01:36:42;9.07;;;4.50;;
25915;SDS011;13719;48.188;11.618;2024-01-30T01:39:10;5.50;;;3.97;;
25915;SDS011;13719;48.188;11.618;2024-01-30T01:41:39;5.53;;;3.70;;
25915;SDS011;13719;48.188;11.618;2024-01-30T01:44:08;6.35;;;4.50;;
25915;SDS011;13719;48.188;11.618;2024-01-30T01:46:36;7.03;;;4.25;;
25915;SDS011;13719;48.188;11.618;2024-01-30T01:49:06;8.70;;;4.35;;
25915;SDS011;13719;48.188;11.618;2024-01-30T01:51:35;7.63;;;4.40;;
25915;SDS011;13719;48.188;11.618;2024-01-30T01:54:04;8.00;;;4.63;;
25915;SDS011;13719;48.188;11.618;2024-01-30T01:56:33;8.65;;;4.82;;
25915;SDS011;13719;48.188;11.618;2024-01-30T01:59:04;7.68;;;4.25;;
25915;SDS011;13719;48.188;11.618;2024-01-30T02:01:32;9.55;;;4.45;;
25915;SDS011;13719;48.188;11.618;2024-01-30T02:04:01;7.03;;;3.80;;
25915;SDS011;13719;48.188;11.618;2024-01-30T02:06:31;7.05;;;4.75;;
25915;SDS011;13719;48.188;11.618;2024-01-30T02:09:00;7.63;;;4.57;;
25915;SDS011;13719;48.188;11.618;2024-01-30T02:11:28;7.55;;;4.38;;
25915;SDS011;13719;48.188;11.618;2024-01-30T02:13:57;5.82;;;4.25;;
25915;SDS011;13719;48.188;11.618;2024-01-30T02:16:25;10.35;;;5.00;;
25915;SDS011;13719;48.188;11.618;2024-01-30T02:18:54;9.73;;;4.78;;
25915;SDS011;13719;48.188;11.618;2024-01-30T02:21:24;10.07;;;4.65;;
25915;SDS011;13719;48.188;11.618;2024-01-30T02:23:52;6.88;;;4.18;;
25915;SDS011;13719;48.188;11.618;2024-01-30T02:26:21;9.07;;;4.35;;
25915;SDS011;13719;48.188;11.618;2024-01-30T02:28:50;4.93;;;3.78;;
25915;SDS011;13719;48.188;11.618;2024-01-30T02:31:18;5.75;;;4.47;;
25915;SDS011;13719;48.188;11.618;2024-01-30T02:33:46;6.57;;;4.43;;
25915;SDS011;13719;48.188;11.618;2024-01-30T02:36:15;8.48;;;4.00;;
25915;SDS011;13719;48.188;11.618;2024-01-30T02:38:45;6.05;;;4.07;;
25915;SDS011;13719;48.188;11.618;2024-01-30T02:41:13;10.73;;;4.30;;
25915;SDS011;13719;48.188;11.618;2024-01-30T02:43:41;7.93;;;4.32;;
25915;SDS011;13719;48.188;11.618;2024-01-30T02:46:10;7.70;;;4.13;;
25915;SDS011;13719;48.188;11.618;2024-01-30T02:48:38;6.53;;;3.90;;
25915;SDS011;13719;48.188;11.618;2024-01-30T02:51:07;7.88;;;3.65;;
25915;SDS011;13719;48.188;11.618;2024-01-30T02:53:35;8.35;;;4.53;;
25915;SDS011;13719;48.188;11.618;2024-01-30T02:56:05;6.88;;;4.32;;
25915;SDS011;13719;48.188;11.618;2024-01-30T02:58:36;11.98;;;3.83;;
25915;SDS011;13719;48.188;11.618;2024-01-30T03:01:04;7.45;;;4.30;;
25915;SDS011;13719;48.188;11.618;2024-01-30T03:03:33;7.22;;;4.38;;
25915;SDS011;13719;48.188;11.618;2024-01-30T03:06:02;5.95;;;3.85;;
25915;SDS011;13719;48.188;11.618;2024-01-30T03:08:31;8.05;;;4.45;;
25915;SDS011;13719;48.188;11.618;2024-01-30T03:11:01;8.63;;;3.72;;
25915;SDS011;13719;48.188;11.618;2024-01-30T03:13:30;7.00;;;3.78;;
25915;SDS011;13719;48.188;11.618;2024-01-30T03:15:59;7.15;;;4.03;;
25915;SDS011;13719;48.188;11.618;2024-01-30T03:18:28;10.00;;;4.25;;
25915;SDS011;13719;48.188;11.618;2024-01-30T03:20:56;11.80;;;4.20;;
25915;SDS011;13719;48.188;11.618;2024-01-30T03:23:24;11.05;;;4.35;;
25915;SDS011;13719;48.188;11.618;2024-01-30T03:25:53;9.13;;;4.68;;
25915;SDS011;13719;48.188;11.618;2024-01-30T03:28:21;6.75;;;3.83;;
25915;SDS011;13719;48.188;11.618;2024-01-30T03:30:51;9.80;;;4.70;;
25915;SDS011;13719;48.188;11.618;2024-01-30T03:33:19;7.47;;;4.20;;
25915;SDS011;13719;48.188;11.618;2024-01-30T03:35:48;5.05;;;3.97;;
25915;SDS011;13719;48.188;11.618;2024-01-30T03:38:16;5.85;;;4.00;;
25915;SDS011;13719;48.188;11.618;2024-01-30T03:40:45;7.63;;;4.47;;
25915;SDS011;13719;48.188;11.618;2024-01-30T03:43:13;6.53;;;4.50;;
25915;SDS011;13719;48.188;11.618;2024-01-30T03:45:42;6.63;;;4.00;;
25915;SDS011;13719;48.188;11.618;2024-01-30T03:48:12;6.30;;;3.50;;
25915;SDS011;13719;48.188;11.618;2024-01-30T03:50:40;7.85;;;4.53;;
25915;SDS011;13719;48.188;11.618;2024-01-30T03:53:09;5.40;;;3.53;;
25915;SDS011;13719;48.188;11.618;2024-01-30T03:55:37;5.78;;;4.05;;
25915;SDS011;13719;48.188;11.618;2024-01-30T03:58:05;6.57;;;4.03;;
25915;SDS011;13719;48.188;11.618;2024-01-30T04:00:34;6.28;;;3.85;;
25915;SDS011;13719;48.188;11.618;2024-01-30T04:03:02;6.65;;;4.20;;
25915;SDS011;13719;48.188;11.618;2024-01-30T04:05:32;5.25;;;4.22;;
25915;SDS011;13719;48.188;11.618;2024-01-30T04:08:01;6.55;;;3.92;;
25915;SDS011;13719;48.188;11.618;2024-01-30T04:10:29;7.53;;;3.90;;
25915;SDS011;13719;48.188;11.618;2024-01-30T04:12:58;7.63;;;4.15;;
25915;SDS011;13719;48.188;11.618;2024-01-30T04:15:27;6.18;;;3.97;;
25915;SDS011;13719;48.188;11.618;2024-01-30T04:17:57;5.90;;;3.95;;
25915;SDS011;13719;48.188;11.618;2024-01-30T04:20:25;6.53;;;3.85;;
25915;SDS011;13719;48.188;11.618;2024-01-30T04:22:55;7.05;;;4.80;;
25915;SDS011;13719;48.188;11.618;2024-01-30T04:25:23;5.90;;;3.85;;
25915;SDS011;13719;48.188;11.618;2024-01-30T04:27:52;7.07;;;3.78;;
25915;SDS011;13719;48.188;11.618;2024-01-30T04:30:20;7.20;;;3.85;;
25915;SDS011;13719;48.188;11.618;2024-01-30T04:32:49;6.22;;;3.97;;
25915;SDS011;13719;48.188;11.618;2024-01-30T04:35:17;7.63;;;3.50;;
25915;SDS011;13719;48.188;11.618;2024-01-30T04:37:50;6.88;;;4.07;;
25915;SDS011;13719;48.188;11.618;2024-01-30T04:40:19;7.15;;;4.05;;
25915;SDS011;13719;48.188;11.618;2024-01-30T04:42:48;6.38;;;3.72;;
25915;SDS011;13719;48.188;11.618;2024-01-30T04:45:16;7.95;;;3.88;;
25915;SDS011;13719;48.188;11.618;2024-01-30T04:47:45;8.18;;;3.90;;
25915;SDS011;13719;48.188;11.618;2024-01-30T04:50:13;6.57;;;3.50;;
25915;SDS011;13719;48.188;11.618;2024-01-30T04:52:42;6.32;;;3.28;;
25915;SDS011;13719;48.188;11.618;2024-01-30T04:55:10;8.13;;;4.10;;
25915;SDS011;13719;48.188;11.618;2024-01-30T04:57:40;8.95;;;4.25;;
25915;SDS011;13719;48.188;11.618;2024-01-30T05:00:09;8.93;;;4.00;;
25915;SDS011;13719;48.188;11.618;2024-01-30T05:02:38;6.45;;;4.13;;
25915;SDS011;13719;48.188;11.618;2024-01-30T05:05:06;6.32;;;3.33;;
25915;SDS011;13719;48.188;11.618;2024-01-30T05:07:35;6.68;;;3.95;;
25915;SDS011;13719;48.188;11.618;2024-01-30T05:10:04;7.32;;;3.40;;
25915;SDS011;13719;48.188;11.618;2024-01-30T05:12:33;7.80;;;3.97;;
25915;SDS011;13719;48.188;11.618;2024-01-30T05:15:03;5.65;;;4.03;;
25915;SDS011;13719;48.188;11.618;2024-01-30T05:17:32;5.80;;;4.18;;
25915;SDS011;13719;48.188;11.618;2024-01-30T05:20:00;7.15;;;4.22;;
25915;SDS011;13719;48.188;11.618;2024-01-30T05:22:29;6.10;;;3.75;;
25915;SDS011;13719;48.188;11.618;2024-01-30T05:24:57;5.72;;;3.60;;
25915;SDS011;13719;48.188;11.618;2024-01-30T05:27:26;6.18;;;3.38;;
25915;SDS011;13719;48.188;11.618;2024-01-30T05:29:54;5.65;;;3.40;;
25915;SDS011;13719;48.188;11.618;2024-01-30T05:32:24;6.60;;;4.10;;
25915;SDS011;13719;48.188;11.618;2024-01-30T05:34:53;7.70;;;4.25;;
25915;SDS011;13719;48.188;11.618;2024-01-30T05:37:21;6.07;;;3.40;;
25915;SDS011;13719;48.188;11.618;2024-01-30T05:39:50;5.60;;;3.33;;
25915;SDS011;13719;48.188;11.618;2024-01-30T05:42:18;9.35;;;4.65;;
25915;SDS011;13719;48.188;11.618;2024-01-30T05:44:47;7.07;;;3.58;;
25915;SDS011;13719;48.188;11.618;2024-01-30T05:47:15;5.97;;;3.50;;
25915;SDS011;13719;48.188;11.618;2024-01-30T05:49:45;5.43;;;3.67;;
25915;SDS011;13719;48.188;11.618;2024-01-30T05:52:13;8.95;;;3.65;;
25915;SDS011;13719;48.188;11.618;2024-01-30T05:54:42;6.75;;;3.45;;
25915;SDS011;13719;48.188;11.618;2024-01-30T05:57:11;7.13;;;4.15;;
25915;SDS011;13719;48.188;11.618;2024-01-30T05:59:39;5.32;;;3.42;;
25915;SDS011;13719;48.188;11.618;2024-01-30T06:02:07;4.57;;;3.05;;
25915;SDS011;13719;48.188;11.618;2024-01-30T06:04:36;7.07;;;3.85;;
25915;SDS011;13719;48.188;11.618;2024-01-30T06:07:06;4.50;;;3.38;;
25915;SDS011;13719;48.188;11.618;2024-01-30T06:09:34;6.75;;;3.90;;
25915;SDS011;13719;48.188;11.618;2024-01-30T06:12:05;14.93;;;4.03;;
25915;SDS011;13719;48.188;11.618;2024-01-30T06:14:33;8.65;;;3.85;;
25915;SDS011;13719;48.188;11.618;2024-01-30T06:17:01;4.53;;;3.10;;
25915;SDS011;13719;48.188;11.618;2024-01-30T06:19:31;4.15;;;2.85;;
25915;SDS011;13719;48.188;11.618;2024-01-30T06:21:59;4.53;;;3.22;;
25915;SDS011;13719;48.188;11.618;2024-01-30T06:24:32;10.88;;;3.22;;
25915;SDS011;13719;48.188;11.618;2024-01-30T06:27:01;5.00;;;2.75;;
25915;SDS011;13719;48.188;11.618;2024-01-30T06:29:30;7.88;;;3.55;;
25915;SDS011;13719;48.188;11.618;2024-01-30T06:31:59;4.10;;;3.20;;
25915;SDS011;13719;48.188;11.618;2024-01-30T06:34:27;6.55;;;3.60;;
25915;SDS011;13719;48.188;11.618;2024-01-30T06:36:56;4.80;;;3.30;;
25915;SDS011;13719;48.188;11.618;2024-01-30T06:39:25;3.70;;;2.65;;
25915;SDS011;13719;48.188;11.618;2024-01-30T06:41:55;7.35;;;2.78;;
25915;SDS011;13719;48.188;11.618;2024-01-30T06:44:24;6.05;;;3.58;;
25915;SDS011;13719;48.188;11.618;2024-01-30T06:46:54;5.72;;;3.30;;
25915;SDS011;13719;48.188;11.618;2024-01-30T06:49:22;4.05;;;2.80;;
25915;SDS011;13719;48.188;11.618;2024-01-30T06:51:51;6.18;;;3.75;;
25915;SDS011;13719;48.188;11.618;2024-01-30T06:54:20;4.85;;;3.28;;
25915;SDS011;13719;48.188;11.618;2024-01-30T06:56:48;4.70;;;2.70;;
25915;SDS011;13719;48.188;11.618;2024-01-30T06:59:18;8.02;;;2.95;;
25915;SDS011;13719;48.188;11.618;2024-01-30T07:01:46;5.22;;;3.30;;
25915;SDS011;13719;48.188;11.618;2024-01-30T07:04:15;5.50;;;3.30;;
25915;SDS011;13719;48.188;11.618;2024-01-30T07:06:45;5.18;;;3.22;;
25915;SDS011;13719;48.188;11.618;2024-01-30T07:09:13;6.05;;;3.33;;
25915;SDS011;13719;48.188;11.618;2024-01-30T07:11:42;5.38;;;3.10;;
25915;SDS011;13719;48.188;11.618;2024-01-30T07:14:10;5.97;;;3.38;;
25915;SDS011;13719;48.188;11.618;2024-01-30T07:16:40;5.88;;;3.15;;
25915;SDS011;13719;48.188;11.618;2024-01-30T07:19:08;6.57;;;3.35;;
25915;SDS011;13719;48.188;11.618;2024-01-30T07:21:37;7.60;;;3.33;;
25915;SDS011;13719;48.188;11.618;2024-01-30T07:24:07;2.88;;;2.33;;
25915;SDS011;13719;48.188;11.618;2024-01-30T07:26:35;8.70;;;3.08;;
25915;SDS011;13719;48.188;11.618;2024-01-30T07:29:03;5.53;;;3.70;;
25915;SDS011;13719;48.188;11.618;2024-01-30T07:31:32;7.22;;;3.65;;
25915;SDS011;13719;48.188;11.618;2024-01-30T07:34:02;6.45;;;3.75;;
25915;SDS011;13719;48.188;11.618;2024-01-30T07:36:31;7.22;;;3.72;;
25915;SDS011;13719;48.188;11.618;2024-01-30T07:38:59;4.32;;;2.83;;
25915;SDS011;13719;48.188;11.618;2024-01-30T07:41:28;6.38;;;3.38;;
25915;SDS011;13719;48.188;11.618;2024-01-30T07:43:56;5.78;;;3.35;;
25915;SDS011;13719;48.188;11.618;2024-01-30T07:46:24;7.28;;;3.47;;
25915;SDS011;13719;48.188;11.618;2024-01-30T07:48:53;7.72;;;2.97;;
25915;SDS011;13719;48.188;11.618;2024-01-30T07:51:25;5.40;;;3.13;;
25915;SDS011;13719;48.188;11.618;2024-01-30T07:53:54;14.43;;;3.53;;
25915;SDS011;13719;48.188;11.618;2024-01-30T07:56:23;5.28;;;3.58;;
25915;SDS011;13719;48.188;11.618;2024-01-30T07:58:51;5.38;;;3.30;;
25915;SDS011;13719;48.188;11.618;2024-01-30T08:01:20;5.13;;;3.33;;
25915;SDS011;13719;48.188;11.618;2024-01-30T08:03:49;9.35;;;3.38;;
25915;SDS011;13719;48.188;11.618;2024-01-30T08:06:17;7.45;;;2.95;;
25915;SDS011;13719;48.188;11.618;2024-01-30T08:08:47;4.93;;;2.97;;
25915;SDS011;13719;48.188;11.618;2024-01-30T08:11:17;6.35;;;3.42;;
25915;SDS011;13719;48.188;11.618;2024-01-30T08:13:46;22.45;;;3.83;;
25915;SDS011;13719;48.188;11.618;2024-01-30T08:16:14;9.98;;;3.67;;
25915;SDS011;13719;48.188;11.618;2024-01-30T08:18:43;6.55;;;3.45;;
25915;SDS011;13719;48.188;11.618;2024-01-30T08:21:11;7.43;;;3.90;;
25915;SDS011;13719;48.188;11.618;2024-01-30T08:23:40;5.53;;;3.97;;
25915;SDS011;13719;48.188;11.618;2024-01-30T08:26:10;5.95;;;3.72;;
25915;SDS011;13719;48.188;11.618;2024-01-30T08:28:38;6.47;;;3.63;;
25915;SDS011;13719;48.188;11.618;2024-01-30T08:31:07;13.02;;;4.13;;
25915;SDS011;13719;48.188;11.618;2024-01-30T08:33:38;9.85;;;3.88;;
25915;SDS011;13719;48.188;11.618;2024-01-30T08:36:09;5.35;;;3.13;;
25915;SDS011;13719;48.188;11.618;2024-01-30T08:38:37;10.00;;;3.10;;
25915;SDS011;13719;48.188;11.618;2024-01-30T08:41:07;5.55;;;3.25;;
25915;SDS011;13719;48.188;11.618;2024-01-30T08:43:36;8.48;;;4.05;;
25915;SDS011;13719;48.188;11.618;2024-01-30T08:46:05;8.25;;;3.83;;
25915;SDS011;13719;48.188;11.618;2024-01-30T08:48:33;11.50;;;4.40;;
25915;SDS011;13719;48.188;11.618;2024-01-30T08:51:04;6.38;;;3.70;;
25915;SDS011;13719;48.188;11.618;2024-01-30T08:53:34;6.15;;;3.50;;
25915;SDS011;13719;48.188;11.618;2024-01-30T08:56:03;9.25;;;3.67;;
25915;SDS011;13719;48.188;11.618;2024-01-30T08:58:31;7.40;;;3.83;;
25915;SDS011;13719;48.188;11.618;2024-01-30T09:01:01;9.80;;;3.58;;
25915;SDS011;13719;48.188;11.618;2024-01-30T09:03:31;6.70;;;3.72;;
25915;SDS011;13719;48.188;11.618;2024-01-30T09:06:00;5.45;;;3.30;;
25915;SDS011;13719;48.188;11.618;2024-01-30T09:08:29;7.32;;;3.55;;
25915;SDS011;13719;48.188;11.618;2024-01-30T09:10:57;7.38;;;3.85;;
25915;SDS011;13719;48.188;11.618;2024-01-30T09:13:26;12.90;;;4.30;;
25915;SDS011;13719;48.188;11.618;2024-01-30T09:15:54;6.13;;;3.25;;
25915;SDS011;13719;48.188;11.618;2024-01-30T09:18:24;7.30;;;3.80;;
25915;SDS011;13719;48.188;11.618;2024-01-30T09:20:52;6.10;;;3.50;;
25915;SDS011;13719;48.188;11.618;2024-01-30T09:23:21;7.28;;;3.40;;
25915;SDS011;13719;48.188;11.618;2024-01-30T09:25:49;8.40;;;3.67;;
25915;SDS011;13719;48.188;11.618;2024-01-30T09:28:18;6.88;;;3.85;;
25915;SDS011;13719;48.188;11.618;2024-01-30T09:30:48;6.80;;;3.42;;
25915;SDS011;13719;48.188;11.618;2024-01-30T09:33:17;5.97;;;3.60;;
25915;SDS011;13719;48.188;11.618;2024-01-30T09:35:48;5.78;;;3.63;;
25915;SDS011;13719;48.188;11.618;2024-01-30T09:38:17;6.53;;;3.40;;
25915;SDS011;13719;48.188;11.618;2024-01-30T09:40:46;5.75;;;3.42;;
25915;SDS011;13719;48.188;11.618;2024-01-30T09:43:19;9.10;;;3.20;;
25915;SDS011;13719;48.188;11.618;2024-01-30T09:45:53;7.93;;;3.53;;
25915;SDS011;13719;48.188;11.618;2024-01-30T09:48:21;7.35;;;3.42;;
25915;SDS011;13719;48.188;11.618;2024-01-30T09:50:52;7.05;;;3.72;;
25915;SDS011;13719;48.188;11.618;2024-01-30T09:53:20;7.85;;;3.42;;
25915;SDS011;13719;48.188;11.618;2024-01-30T09:55:50;5.65;;;3.47;;
25915;SDS011;13719;48.188;11.618;2024-01-30T09:58:18;5.43;;;3.33;;
25915;SDS011;13719;48.188;11.618;2024-01-30T10:00:48;7.18;;;3.25;;
25915;SDS011;13719;48.188;11.618;2024-01-30T10:03:16;6.30;;;3.70;;
25915;SDS011;13719;48.188;11.618;2024-01-30T10:05:46;6.50;;;3.28;;
25915;SDS011;13719;48.188;11.618;2024-01-30T10:08:20;6.75;;;3.45;;
25915;SDS011;13719;48.188;11.618;2024-01-30T10:10:49;5.45;;;3.33;;
25915;SDS011;13719;48.188;11.618;2024-01-30T10:13:17;6.47;;;3.22;;
25915;SDS011;13719;48.188;11.618;2024-01-30T10:15:47;5.65;;;3.10;;
25915;SDS011;13719;48.188;11.618;2024-01-30T10:18:15;9.95;;;3.30;;
25915;SDS011;13719;48.188;11.618;2024-01-30T10:20:44;6.53;;;3.53;;
25915;SDS011;13719;48.188;11.618;2024-01-30T10:23:12;6.95;;;3.45;;
25915;SDS011;13719;48.188;11.618;2024-01-30T10:25:42;5.47;;;3.45;;
25915;SDS011;13719;48.188;11.618;2024-01-30T10:28:11;7.78;;;3.47;;
25915;SDS011;13719;48.188;11.618;2024-01-30T10:30:39;6.30;;;3.50;;
25915;SDS011;13719;48.188;11.618;2024-01-30T10:33:07;5.07;;;3.13;;
25915;SDS011;13719;48.188;11.618;2024-01-30T10:35:36;7.68;;;3.05;;
25915;SDS011;13719;48.188;11.618;2024-01-30T10:38:05;6.43;;;4.00;;
25915;SDS011;13719;48.188;11.618;2024-01-30T10:40:34;7.13;;;3.40;;
25915;SDS011;13719;48.188;11.618;2024-01-30T10:43:05;4.95;;;3.20;;
25915;SDS011;13719;48.188;11.618;2024-01-30T10:45:36;9.38;;;3.63;;
25915;SDS011;13719;48.188;11.618;2024-01-30T10:48:08;10.95;;;3.22;;
25915;SDS011;13719;48.188;11.618;2024-01-30T10:50:37;5.03;;;3.20;;
25915;SDS011;13719;48.188;11.618;2024-01-30T10:53:19;12.00;;;3.33;;
25915;SDS011;13719;48.188;11.618;2024-01-30T10:55:47;5.97;;;3.40;;
25915;SDS011;13719;48.188;11.618;2024-01-30T10:58:19;6.00;;;3.47;;
25915;SDS011;13719;48.188;11.618;2024-01-30T11:00:47;14.93;;;4.00;;
25915;SDS011;13719;48.188;11.618;2024-01-30T11:03:17;11.00;;;3.60;;
25915;SDS011;13719;48.188;11.618;2024-01-30T11:05:48;6.25;;;3.85;;
25915;SDS011;13719;48.188;11.618;2024-01-30T11:08:27;3.70;;;2.92;;
25915;SDS011;13719;48.188;11.618;2024-01-30T11:10:56;5.63;;;2.65;;
25915;SDS011;13719;48.188;11.618;2024-01-30T11:13:30;7.22;;;3.10;;
25915;SDS011;13719;48.188;11.618;2024-01-30T11:16:02;6.57;;;2.88;;
25915;SDS011;13719;48.188;11.618;2024-01-30T11:18:30;7.07;;;2.97;;
25915;SDS011;13719;48.188;11.618;2024-01-30T11:20:59;5.78;;;2.85;;
25915;SDS011;13719;48.188;11.618;2024-01-30T11:23:28;8.30;;;3.55;;
25915;SDS011;13719;48.188;11.618;2024-01-30T11:25:57;8.50;;;3.60;;
25915;SDS011;13719;48.188;11.618;2024-01-30T11:28:25;6.75;;;3.42;;
25915;SDS011;13719;48.188;11.618;2024-01-30T11:31:04;7.40;;;3.90;;
25915;SDS011;13719;48.188;11.618;2024-01-30T11:33:33;7.25;;;3.70;;
25915;SDS011;13719;48.188;11.618;2024-01-30T11:36:02;7.32;;;3.88;;
25915;SDS011;13719;48.188;11.618;2024-01-30T11:38:33;9.65;;;3.50;;
25915;SDS011;13719;48.188;11.618;2024-01-30T11:41:02;8.88;;;3.78;;
25915;SDS011;13719;48.188;11.618;2024-01-30T11:43:31;7.32;;;3.72;;
25915;SDS011;13719;48.188;11.618;2024-01-30T11:46:01;4.13;;;2.25;;
25915;SDS011;13719;48.188;11.618;2024-01-30T11:48:31;10.63;;;2.38;;
25915;SDS011;13719;48.188;11.618;2024-01-30T11:51:00;6.20;;;2.25;;
25915;SDS011;13719;48.188;11.618;2024-01-30T11:53:28;3.22;;;1.80;;
25915;SDS011;13719;48.188;11.618;2024-01-30T11:55:56;4.78;;;2.03;;
25915;SDS011;13719;48.188;11.618;2024-01-30T11:58:25;4.05;;;2.17;;
25915;SDS011;13719;48.188;11.618;2024-01-30T12:00:54;4.47;;;1.70;;
25915;SDS011;13719;48.188;11.618;2024-01-30T12:03:23;3.13;;;1.73;;
25915;SDS011;13719;48.188;11.618;2024-01-30T12:05:56;3.60;;;1.92;;
25915;SDS011;13719;48.188;11.618;2024-01-30T12:08:26;3.70;;;1.60;;
25915;SDS011;13719;48.188;11.618;2024-01-30T12:10:55;3.78;;;1.95;;
25915;SDS011;13719;48.188;11.618;2024-01-30T12:13:25;3.35;;;1.67;;
25915;SDS011;13719;48.188;11.618;2024-01-30T12:15:58;3.33;;;1.65;;
25915;SDS011;13719;48.188;11.618;2024-01-30T12:18:27;3.85;;;1.83;;
25915;SDS011;13719;48.188;11.618;2024-01-30T12:21:00;5.15;;;1.95;;
25915;SDS011;13719;48.188;11.618;2024-01-30T12:23:28;5.43;;;1.70;;
25915;SDS011;13719;48.188;11.618;2024-01-30T12:25:57;5.45;;;1.83;;
25915;SDS011;13719;48.188;11.618;2024-01-30T12:28:25;3.00;;;1.48;;
25915;SDS011;13719;48.188;11.618;2024-01-30T12:30:55;5.22;;;1.52;;
25915;SDS011;13719;48.188;11.618;2024-01-30T12:33:26;2.90;;;1.90;;
25915;SDS011;13719;48.188;11.618;2024-01-30T12:35:55;3.70;;;1.70;;
25915;SDS011;13719;48.188;11.618;2024-01-30T12:38:30;2.47;;;1.52;;
25915;SDS011;13719;48.188;11.618;2024-01-30T12:40:59;5.05;;;1.88;;
25915;SDS011;13719;48.188;11.618;2024-01-30T12:43:27;2.70;;;1.85;;
25915;SDS011;13719;48.188;11.618;2024-01-30T12:46:04;2.30;;;1.63;;
25915;SDS011;13719;48.188;11.618;2024-01-30T12:48:33;3.28;;;1.75;;
25915;SDS011;13719;48.188;11.618;2024-01-30T12:51:02;2.92;;;1.92;;
25915;SDS011;13719;48.188;11.618;2024-01-30T12:53:32;1.88;;;1.50;;
25915;SDS011;13719;48.188;11.618;2024-01-30T12:56:00;3.67;;;1.60;;
25915;SDS011;13719;48.188;11.618;2024-01-30T12:58:29;4.40;;;1.40;;
25915;SDS011;13719;48.188;11.618;2024-01-30T13:00:57;5.47;;;1.50;;
25915;SDS011;13719;48.188;11.618;2024-01-30T13:03:26;3.33;;;1.67;;
25915;SDS011;13719;48.188;11.618;2024-01-30T13:05:55;2.78;;;1.55;;
25915;SDS011;13719;48.188;11.618;2024-01-30T13:08:23;3.78;;;2.15;;
25915;SDS011;13719;48.188;11.618;2024-01-30T13:10:53;4.63;;;1.90;;
25915;SDS011;13719;48.188;11.618;2024-01-30T13:13:21;3.08;;;1.60;;
25915;SDS011;13719;48.188;11.618;2024-01-30T13:15:50;4.35;;;1.98;;
25915;SDS011;13719;48.188;11.618;2024-01-30T13:18:18;3.78;;;1.40;;
25915;SDS011;13719;48.188;11.618;2024-01-30T13:20:47;2.58;;;1.40;;
25915;SDS011;13719;48.188;11.618;2024-01-30T13:23:15;2.53;;;1.60;;
25915;SDS011;13719;48.188;11.618;2024-01-30T13:25:44;2.85;;;1.60;;
25915;SDS011;13719;48.188;11.618;2024-01-30T13:28:14;5.53;;;1.92;;
25915;SDS011;13719;48.188;11.618;2024-01-30T13:30:42;4.60;;;1.55;;
25915;SDS011;13719;48.188;11.618;2024-01-30T13:33:11;4.63;;;1.52;;
25915;SDS011;13719;48.188;11.618;2024-01-30T13:35:39;6.35;;;1.70;;
25915;SDS011;13719;48.188;11.618;2024-01-30T13:38:09;2.70;;;1.27;;
25915;SDS011;13719;48.188;11.618;2024-01-30T13:40:37;2.13;;;1.33;;
25915;SDS011;13719;48.188;11.618;2024-01-30T13:43:06;1.40;;;1.08;;
25915;SDS011;13719;48.188;11.618;2024-01-30T13:45:36;5.53;;;1.50;;
25915;SDS011;13719;48.188;11.618;2024-01-30T13:48:04;4.55;;;1.48;;
25915;SDS011;13719;48.188;11.618;2024-01-30T13:50:33;4.55;;;1.63;;
25915;SDS011;13719;48.188;11.618;2024-01-30T13:53:02;7.55;;;1.77;;
25915;SDS011;13719;48.188;11.618;2024-01-30T13:55:31;3.80;;;2.13;;
25915;SDS011;13719;48.188;11.618;2024-01-30T13:58:00;2.67;;;1.50;;
25915;SDS011;13719;48.188;11.618;2024-01-30T14:00:29;2.53;;;1.40;;
25915;SDS011;13719;48.188;11.618;2024-01-30T14:02:59;1.33;;;1.23;;
25915;SDS011;13719;48.188;11.618;2024-01-30T14:05:28;1.45;;;1.20;;
25915;SDS011;13719;48.188;11.618;2024-01-30T14:07:56;2.55;;;1.40;;
25915;SDS011;13719;48.188;11.618;2024-01-30T14:10:25;2.25;;;1.38;;
25915;SDS011;13719;48.188;11.618;2024-01-30T14:12:54;2.08;;;1.20;;
25915;SDS011;13719;48.188;11.618;2024-01-30T14:15:23;3.47;;;1.42;;
25915;SDS011;13719;48.188;11.618;2024-01-30T14:17:55;4.53;;;1.23;;
25915;SDS011;13719;48.188;11.618;2024-01-30T14:20:26;2.10;;;1.65;;
25915;SDS011;13719;48.188;11.618;2024-01-30T14:22:55;3.88;;;1.33;;
25915;SDS011;13719;48.188;11.618;2024-01-30T14:25:23;3.95;;;1.33;;
25915;SDS011;13719;48.188;11.618;2024-01-30T14:27:52;2.42;;;1.45;;
25915;SDS011;13719;48.188;11.618;2024-01-30T14:30:21;4.93;;;1.58;;
25915;SDS011;13719;48.188;11.618;2024-01-30T14:32:49;1.83;;;1.48;;
25915;SDS011;13719;48.188;11.618;2024-01-30T14:35:18;3.42;;;1.55;;
25915;SDS011;13719;48.188;11.618;2024-01-30T14:37:48;3.15;;;1.60;;
25915;SDS011;13719;48.188;11.618;2024-01-30T14:40:17;3.72;;;1.27;;
25915;SDS011;13719;48.188;11.618;2024-01-30T14:42:46;1.88;;;1.30;;
25915;SDS011;13719;48.188;11.618;2024-01-30T14:45:14;1.55;;;1.30;;